Time;durP1;ratioP1;P1;durP2;ratioP2;P2;SDS_P1;SDS_P2;PMS_P1;PMS_P2;Temp;Humidity;BMP_temperature;BMP_pressure;BME280_temperature;BME280_humidity;BME280_pressure;Samples;Min_cycle;Max_cycle;Signal;HPM_P1;HPM_P2
2023/03/19 00:00:07;;;;;;;4.63;2.25;;;11.50;99.90;;;;;;4966472;28;20101;-66
2023/03/19 00:02:33;;;;;;;7.13;2.72;;;11.50;99.90;;;;;;4991811;28;20057;-66
2023/03/19 00:04:59;;;;;;;5.30;2.00;;;11.50;99.90;;;;;;4976371;28;20029;-67
2023/03/19 00:07:25;;;;;;;5.30;2.45;;;11.50;99.90;;;;;;4974363;28;20038;-66
2023/03/19 00:09:51;;;;;;;4.43;2.20;;;11.50;99.90;;;;;;4943322;28;20034;-66
2023/03/19 00:12:17;;;;;;;7.43;3.17;;;11.50;99.90;;;;;;4974107;28;20493;-66
2023/03/19 00:14:43;;;;;;;5.32;2.38;;;11.50;99.90;;;;;;4976308;28;20487;-67
2023/03/19 00:17:10;;;;;;;7.63;3.05;;;11.50;99.90;;;;;;4974185;28;20040;-67
2023/03/19 00:19:35;;;;;;;7.80;2.20;;;11.40;99.90;;;;;;4976595;28;20447;-66
2023/03/19 00:22:01;;;;;;;5.57;3.03;;;11.50;99.90;;;;;;4990873;28;20031;-67
2023/03/19 00:24:27;;;;;;;6.55;2.70;;;11.50;99.90;;;;;;4958626;28;20035;-67
2023/03/19 00:26:54;;;;;;;9.35;2.42;;;11.40;99.90;;;;;;4991390;28;20486;-67
2023/03/19 00:29:20;;;;;;;5.25;2.45;;;11.40;99.90;;;;;;4961030;28;20035;-67
2023/03/19 00:31:46;;;;;;;6.47;2.83;;;11.40;99.90;;;;;;4990167;28;20030;-68
2023/03/19 00:34:12;;;;;;;8.32;3.17;;;11.50;99.90;;;;;;4979986;28;20031;-67
2023/03/19 00:36:38;;;;;;;5.90;2.63;;;11.60;99.90;;;;;;4972521;28;20030;-67
2023/03/19 00:39:05;;;;;;;5.88;2.95;;;11.60;99.90;;;;;;4964007;28;20154;-68
2023/03/19 00:41:31;;;;;;;6.25;2.40;;;11.60;99.90;;;;;;4984781;28;20022;-66
2023/03/19 00:43:57;;;;;;;5.05;2.47;;;11.60;99.90;;;;;;4965637;28;20038;-65
2023/03/19 00:46:24;;;;;;;8.07;3.00;;;11.50;99.90;;;;;;4984268;28;20034;-68
2023/03/19 00:48:54;;;;;;;7.97;2.72;;;11.40;99.90;;;;;;4920324;28;20042;-68
2023/03/19 00:51:21;;;;;;;9.95;2.92;;;11.30;99.90;;;;;;4983290;28;20030;-68
2023/03/19 00:53:47;;;;;;;5.18;2.60;;;11.20;99.90;;;;;;4968646;28;20058;-68
2023/03/19 00:56:15;;;;;;;5.20;2.72;;;11.30;99.90;;;;;;4981322;28;20139;-67
2023/03/19 00:58:41;;;;;;;7.45;2.97;;;11.40;99.90;;;;;;4970134;28;20042;-68
2023/03/19 01:01:13;;;;;;;7.55;3.30;;;11.40;99.90;;;;;;4962224;28;20027;-67
2023/03/19 01:03:39;;;;;;;10.30;2.35;;;11.50;99.90;;;;;;4970802;28;20479;-67
2023/03/19 01:06:06;;;;;;;3.88;2.80;;;11.50;99.90;;;;;;4979231;28;20026;-67
2023/03/19 01:08:32;;;;;;;8.98;2.75;;;11.50;99.90;;;;;;4989887;28;20026;-68
2023/03/19 01:11:11;;;;;;;4.07;2.05;;;11.50;99.90;;;;;;4983975;28;20026;-68
2023/03/19 01:13:37;;;;;;;8.38;2.78;;;11.60;99.90;;;;;;4971334;28;20049;-68
2023/03/19 01:16:03;;;;;;;7.32;2.72;;;11.80;99.90;;;;;;4978706;28;20508;-67
2023/03/19 01:18:30;;;;;;;7.95;3.03;;;11.60;99.90;;;;;;4973086;28;20041;-69
2023/03/19 01:20:57;;;;;;;5.50;2.67;;;11.60;99.90;;;;;;4977094;28;20026;-68
2023/03/19 01:23:23;;;;;;;9.15;2.70;;;11.60;99.90;;;;;;4973363;28;20030;-67
2023/03/19 01:25:48;;;;;;;4.30;2.10;;;11.40;99.90;;;;;;4958853;28;20045;-68
2023/03/19 01:28:14;;;;;;;9.20;2.75;;;11.40;99.90;;;;;;4973391;28;20048;-68
2023/03/19 01:30:40;;;;;;;6.05;3.13;;;11.40;99.90;;;;;;4976076;28;20117;-68
2023/03/19 01:33:06;;;;;;;5.72;2.65;;;11.20;99.90;;;;;;4992681;28;20478;-68
2023/03/19 01:35:32;;;;;;;5.50;2.90;;;11.20;99.90;;;;;;4962272;28;20069;-68
2023/03/19 01:37:58;;;;;;;8.68;2.70;;;11.30;99.90;;;;;;4994757;28;20081;-67
2023/03/19 01:40:24;;;;;;;6.13;2.90;;;11.30;99.90;;;;;;4979420;28;20037;-67
2023/03/19 01:43:17;;;;;;;6.47;2.72;;;11.30;99.90;;;;;;4994291;28;20030;-66
2023/03/19 01:45:45;;;;;;;3.95;2.08;;;11.30;99.90;;;;;;4979614;28;20121;-67
2023/03/19 01:48:31;;;;;;;4.68;2.55;;;11.30;99.90;;;;;;4977331;28;20037;-66
2023/03/19 01:50:58;;;;;;;3.92;2.13;;;11.30;99.90;;;;;;4980795;28;20069;-67
2023/03/19 01:53:30;;;;;;;5.85;1.92;;;11.30;99.90;;;;;;4976857;28;20482;-67
2023/03/19 01:56:05;;;;;;;7.35;2.17;;;11.30;99.90;;;;;;4963656;28;20038;-67
2023/03/19 01:58:31;;;;;;;6.50;2.50;;;11.30;99.90;;;;;;4975999;28;20045;-68
2023/03/19 02:00:57;;;;;;;5.53;2.53;;;11.30;99.90;;;;;;4979250;28;20088;-67
2023/03/19 02:03:25;;;;;;;4.88;2.25;;;11.20;99.90;;;;;;4976404;28;20034;-67
2023/03/19 02:05:53;;;;;;;8.90;2.45;;;11.20;99.90;;;;;;4968630;28;20063;-66
2023/03/19 02:08:21;;;;;;;5.90;2.85;;;11.20;99.90;;;;;;4975831;28;20030;-67
2023/03/19 02:10:50;;;;;;;4.22;2.40;;;11.10;99.90;;;;;;4960514;28;20045;-65
2023/03/19 02:13:16;;;;;;;3.90;2.05;;;11.10;99.90;;;;;;4976590;28;20033;-65
2023/03/19 02:15:42;;;;;;;4.78;2.20;;;11.20;99.90;;;;;;4971821;28;20481;-65
2023/03/19 02:18:08;;;;;;;5.18;2.50;;;11.20;99.90;;;;;;4993560;28;20114;-66
2023/03/19 02:20:48;;;;;;;5.57;2.58;;;11.00;99.90;;;;;;4978591;28;20125;-66
2023/03/19 02:23:41;;;;;;;5.05;2.13;;;11.00;99.90;;;;;;4974704;28;20041;-66
2023/03/19 02:26:17;;;;;;;4.28;2.45;;;10.90;99.90;;;;;;4981167;28;20046;-66
2023/03/19 02:28:47;;;;;;;4.68;2.78;;;10.90;99.90;;;;;;4989406;28;20069;-67
2023/03/19 02:31:13;;;;;;;4.70;2.15;;;10.80;99.90;;;;;;4982596;28;20033;-66
2023/03/19 02:33:39;;;;;;;7.38;2.45;;;10.80;99.90;;;;;;4972793;28;20509;-66
2023/03/19 02:36:16;;;;;;;7.63;2.38;;;10.70;99.90;;;;;;4981212;28;20458;-66
2023/03/19 02:38:43;;;;;;;3.65;2.20;;;10.70;99.90;;;;;;4989998;28;20035;-66
2023/03/19 02:41:10;;;;;;;4.90;2.13;;;10.60;99.90;;;;;;4968363;28;20473;-67
2023/03/19 02:43:39;;;;;;;6.55;2.92;;;10.60;99.90;;;;;;4973496;28;20030;-66
2023/03/19 02:46:10;;;;;;;4.55;2.38;;;10.60;99.90;;;;;;4980814;28;20085;-66
2023/03/19 02:48:37;;;;;;;2.60;1.95;;;10.70;99.90;;;;;;4974130;28;20541;-67
2023/03/19 02:51:04;;;;;;;2.80;1.60;;;10.60;99.90;;;;;;4969727;28;20085;-66
2023/03/19 02:53:30;;;;;;;5.70;2.22;;;10.60;99.90;;;;;;4992144;28;20052;-66
2023/03/19 02:55:56;;;;;;;4.68;2.35;;;10.60;99.90;;;;;;4968450;28;20053;-66
2023/03/19 02:58:22;;;;;;;5.13;2.15;;;10.60;99.90;;;;;;4992822;28;20038;-66
2023/03/19 03:00:47;;;;;;;3.63;1.85;;;10.60;99.90;;;;;;4977940;28;20062;-66
2023/03/19 03:03:13;;;;;;;4.65;2.35;;;10.60;99.90;;;;;;4975175;28;20026;-66
2023/03/19 03:05:39;;;;;;;5.15;2.42;;;10.60;99.90;;;;;;5002988;23;20476;-66
2023/03/19 03:08:05;;;;;;;5.03;2.60;;;10.70;99.90;;;;;;5009955;28;20040;-65
2023/03/19 03:10:32;;;;;;;5.13;2.00;;;10.60;99.90;;;;;;4988132;28;20054;-65
2023/03/19 03:12:59;;;;;;;5.22;2.58;;;10.60;99.90;;;;;;4987523;28;20040;-65
2023/03/19 03:15:25;;;;;;;3.53;1.80;;;10.60;99.90;;;;;;4988884;28;20405;-65
2023/03/19 03:17:51;;;;;;;3.08;1.80;;;10.60;99.90;;;;;;4970457;28;20109;-65
2023/03/19 03:20:18;;;;;;;5.85;2.47;;;10.60;99.90;;;;;;5006568;28;20668;-65
2023/03/19 03:22:44;;;;;;;3.33;1.50;;;10.60;99.90;;;;;;4970350;28;20029;-65
2023/03/19 03:25:11;;;;;;;10.20;3.55;;;10.50;99.90;;;;;;4972377;28;20512;-65
2023/03/19 03:27:37;;;;;;;4.40;2.13;;;10.60;99.90;;;;;;5003943;28;20473;-65
2023/03/19 03:30:07;;;;;;;4.05;2.22;;;10.50;99.90;;;;;;4984065;28;20432;-65
2023/03/19 03:32:34;;;;;;;5.47;2.47;;;10.50;99.90;;;;;;4986654;28;20485;-66
2023/03/19 03:35:00;;;;;;;4.85;2.00;;;10.50;99.90;;;;;;4988504;28;20045;-66
2023/03/19 03:37:26;;;;;;;3.92;1.73;;;10.50;99.90;;;;;;5003650;28;20034;-66
2023/03/19 03:39:52;;;;;;;3.78;1.77;;;10.50;99.90;;;;;;5001491;28;20032;-66
2023/03/19 03:42:18;;;;;;;2.83;1.85;;;10.50;99.90;;;;;;5003762;28;20026;-66
2023/03/19 03:44:44;;;;;;;4.35;2.55;;;10.60;99.90;;;;;;5005373;28;20503;-66
2023/03/19 03:47:10;;;;;;;3.42;2.08;;;10.60;99.90;;;;;;4986176;28;20025;-66
2023/03/19 03:49:36;;;;;;;4.32;2.83;;;10.60;99.90;;;;;;4986610;28;20486;-66
2023/03/19 03:52:02;;;;;;;5.10;2.00;;;10.60;99.90;;;;;;5003571;28;20102;-66
2023/03/19 03:54:28;;;;;;;5.30;2.10;;;10.60;99.90;;;;;;5005455;28;20517;-66
2023/03/19 03:56:53;;;;;;;5.13;3.10;;;10.60;99.90;;;;;;5002561;28;20034;-66
2023/03/19 03:59:19;;;;;;;5.35;2.22;;;10.70;99.90;;;;;;5002705;28;20030;-66
2023/03/19 04:01:45;;;;;;;4.90;2.58;;;10.70;99.90;;;;;;5002063;28;20112;-66
2023/03/19 04:04:11;;;;;;;5.63;2.28;;;10.60;99.90;;;;;;5004528;28;20501;-66
2023/03/19 04:06:36;;;;;;;4.50;2.25;;;10.60;99.90;;;;;;4999608;28;20533;-66
2023/03/19 04:09:04;;;;;;;4.25;2.45;;;10.60;99.90;;;;;;5008422;28;20121;-65
2023/03/19 04:11:29;;;;;;;3.65;1.80;;;10.60;99.90;;;;;;5000354;28;20026;-64
2023/03/19 04:13:56;;;;;;;4.15;1.98;;;10.60;99.90;;;;;;4975103;28;20033;-64
2023/03/19 04:16:23;;;;;;;2.58;1.83;;;10.50;99.90;;;;;;4982331;28;20023;-65
2023/03/19 04:18:49;;;;;;;3.22;2.10;;;10.50;99.90;;;;;;4992486;28;20758;-65
2023/03/19 04:21:15;;;;;;;6.78;2.25;;;10.40;99.90;;;;;;4999582;28;20049;-66
2023/03/19 04:23:41;;;;;;;6.53;2.50;;;10.40;99.90;;;;;;5009594;28;20366;-66
2023/03/19 04:26:07;;;;;;;4.32;2.58;;;10.30;99.90;;;;;;4993468;28;20030;-66
2023/03/19 04:28:33;;;;;;;7.18;2.50;;;10.20;99.90;;;;;;5008743;28;20030;-65
2023/03/19 04:31:06;;;;;;;5.07;2.45;;;10.30;99.90;;;;;;4995819;28;20070;-66
2023/03/19 04:33:33;;;;;;;3.95;1.65;;;10.40;99.90;;;;;;5008343;28;20554;-66
2023/03/19 04:36:00;;;;;;;5.20;1.95;;;10.40;99.90;;;;;;4982938;28;20062;-65
2023/03/19 04:38:26;;;;;;;6.70;2.60;;;10.40;99.90;;;;;;5007557;28;20371;-66
2023/03/19 04:40:52;;;;;;;5.43;2.22;;;10.40;99.90;;;;;;5001174;28;20389;-66
2023/03/19 04:43:18;;;;;;;5.43;2.08;;;10.50;99.90;;;;;;5006454;28;20056;-66
2023/03/19 04:45:44;;;;;;;7.07;2.15;;;10.50;99.90;;;;;;4998900;28;20655;-66
2023/03/19 04:48:10;;;;;;;6.22;1.75;;;10.50;99.90;;;;;;4981389;28;20042;-66
2023/03/19 04:50:36;;;;;;;4.68;2.25;;;10.50;99.90;;;;;;5009195;28;20032;-65
2023/03/19 04:53:02;;;;;;;4.22;2.17;;;10.50;99.90;;;;;;4999435;28;20026;-65
2023/03/19 04:55:28;;;;;;;4.60;2.05;;;10.50;99.90;;;;;;4990305;28;20030;-66
2023/03/19 04:57:54;;;;;;;4.05;2.53;;;10.50;99.90;;;;;;5000754;28;20077;-65
2023/03/19 05:00:20;;;;;;;5.53;2.60;;;10.50;99.90;;;;;;5006594;28;20022;-66
2023/03/19 05:02:46;;;;;;;4.93;2.83;;;10.60;99.90;;;;;;5001740;28;20053;-65
2023/03/19 05:05:12;;;;;;;7.32;2.25;;;10.50;99.90;;;;;;5005287;28;20029;-66
2023/03/19 05:07:40;;;;;;;4.40;1.95;;;10.50;99.90;;;;;;5004385;28;20058;-66
2023/03/19 05:10:07;;;;;;;4.85;1.85;;;10.50;99.90;;;;;;4991202;28;20034;-66
2023/03/19 05:12:33;;;;;;;4.35;1.90;;;10.40;99.90;;;;;;5007763;28;20041;-65
2023/03/19 05:15:00;;;;;;;4.22;1.77;;;10.40;99.90;;;;;;5001445;28;20026;-66
2023/03/19 05:17:26;;;;;;;4.43;2.35;;;10.40;99.90;;;;;;4984913;28;20724;-66
2023/03/19 05:19:52;;;;;;;4.10;2.20;;;10.40;99.90;;;;;;4989086;28;20034;-66
2023/03/19 05:22:19;;;;;;;8.13;2.97;;;10.40;99.90;;;;;;5002618;28;20037;-65
2023/03/19 05:24:45;;;;;;;5.80;2.40;;;10.40;99.90;;;;;;4988446;28;20026;-65
2023/03/19 05:27:11;;;;;;;5.93;2.25;;;10.30;99.90;;;;;;4991062;28;20084;-65
2023/03/19 05:29:37;;;;;;;3.88;1.88;;;10.30;99.90;;;;;;5006278;28;20037;-66
2023/03/19 05:32:04;;;;;;;6.50;2.65;;;10.30;99.90;;;;;;4970604;28;20030;-65
2023/03/19 05:34:30;;;;;;;6.18;3.28;;;10.30;99.90;;;;;;4988032;28;20033;-65
2023/03/19 05:36:56;;;;;;;4.15;1.98;;;10.30;99.90;;;;;;4987066;28;20088;-65
2023/03/19 05:39:22;;;;;;;12.45;2.78;;;10.30;99.90;;;;;;4988597;28;20105;-65
2023/03/19 05:41:48;;;;;;;8.75;3.20;;;10.30;99.90;;;;;;4986582;28;20104;-66
2023/03/19 05:44:15;;;;;;;3.42;1.88;;;10.30;99.90;;;;;;4987897;28;20497;-65
2023/03/19 05:46:42;;;;;;;6.43;2.70;;;10.30;99.90;;;;;;5008179;28;20037;-65
2023/03/19 05:49:08;;;;;;;5.85;2.53;;;10.30;99.90;;;;;;4972164;28;20036;-66
2023/03/19 05:51:34;;;;;;;4.25;2.25;;;10.30;99.90;;;;;;4988458;28;20035;-65
2023/03/19 05:54:00;;;;;;;6.57;2.03;;;10.30;99.90;;;;;;5005217;28;20104;-66
2023/03/19 05:56:26;;;;;;;4.97;2.30;;;10.30;99.90;;;;;;4987417;28;20042;-65
2023/03/19 05:58:52;;;;;;;7.15;2.33;;;10.40;99.90;;;;;;5005321;28;20045;-65
2023/03/19 06:01:18;;;;;;;4.15;2.17;;;10.40;99.90;;;;;;5008724;28;20026;-65
2023/03/19 06:03:44;;;;;;;10.80;2.58;;;10.40;99.90;;;;;;5004337;28;20026;-65
2023/03/19 06:06:09;;;;;;;3.15;1.73;;;10.40;99.90;;;;;;5007080;28;20032;-65
2023/03/19 06:08:35;;;;;;;5.10;2.60;;;10.40;99.90;;;;;;5001469;28;20096;-66
2023/03/19 06:11:01;;;;;;;3.75;2.22;;;10.30;99.90;;;;;;5010728;28;20034;-66
2023/03/19 06:13:27;;;;;;;4.90;1.92;;;10.40;99.90;;;;;;4987653;28;20796;-66
2023/03/19 06:15:52;;;;;;;3.28;2.03;;;10.40;99.90;;;;;;4999799;28;20034;-65
2023/03/19 06:18:18;;;;;;;3.50;2.15;;;10.40;99.90;;;;;;5001726;28;20058;-66
2023/03/19 06:20:46;;;;;;;3.95;2.20;;;10.40;99.90;;;;;;4994184;28;20657;-65
2023/03/19 06:23:13;;;;;;;7.45;2.53;;;10.50;99.90;;;;;;4997046;28;20030;-65
2023/03/19 06:25:39;;;;;;;4.07;2.08;;;10.50;99.90;;;;;;5011699;28;20450;-65
2023/03/19 06:28:05;;;;;;;5.85;2.30;;;10.50;99.90;;;;;;5001902;28;20113;-65
2023/03/19 06:30:32;;;;;;;5.38;2.17;;;10.50;99.90;;;;;;5010350;28;20038;-65
2023/03/19 06:32:58;;;;;;;2.45;1.70;;;10.50;99.90;;;;;;5002457;28;20465;-66
2023/03/19 06:35:24;;;;;;;5.65;2.38;;;10.60;99.90;;;;;;4992376;28;20057;-66
2023/03/19 06:37:49;;;;;;;2.67;1.67;;;10.60;99.90;;;;;;4999303;28;20078;-65
2023/03/19 06:40:15;;;;;;;6.30;2.30;;;10.60;99.90;;;;;;5007148;28;20030;-65
2023/03/19 06:42:46;;;;;;;3.40;2.00;;;10.60;99.90;;;;;;4987367;28;20045;-65
2023/03/19 06:45:15;;;;;;;4.07;2.00;;;10.60;99.90;;;;;;5007511;28;20022;-66
2023/03/19 06:47:42;;;;;;;8.07;2.65;;;10.60;99.90;;;;;;4997099;28;20037;-65
2023/03/19 06:50:11;;;;;;;5.03;2.17;;;10.70;99.90;;;;;;5007277;28;20033;-65
2023/03/19 06:52:37;;;;;;;4.45;2.10;;;10.70;99.90;;;;;;4987689;28;20034;-67
2023/03/19 06:55:04;;;;;;;4.53;2.10;;;10.70;99.90;;;;;;5005923;28;20397;-67
2023/03/19 06:57:29;;;;;;;10.82;2.58;;;10.80;99.90;;;;;;5005998;28;20452;-66
2023/03/19 06:59:55;;;;;;;3.53;1.75;;;10.90;99.90;;;;;;4987796;28;20033;-67
2023/03/19 07:02:22;;;;;;;3.00;1.70;;;10.90;99.90;;;;;;5004913;28;20032;-66
2023/03/19 07:04:47;;;;;;;4.72;2.17;;;11.00;99.90;;;;;;5004067;28;20065;-66
2023/03/19 07:07:13;;;;;;;4.90;2.17;;;11.10;99.90;;;;;;4989188;28;20485;-66
2023/03/19 07:09:39;;;;;;;8.98;2.22;;;11.30;99.90;;;;;;5004511;28;20022;-66
2023/03/19 07:12:05;;;;;;;4.53;2.13;;;11.30;99.90;;;;;;5008639;28;20036;-66
2023/03/19 07:14:31;;;;;;;4.32;2.13;;;11.30;99.90;;;;;;5002317;28;20497;-66
2023/03/19 07:16:57;;;;;;;3.42;2.03;;;11.30;99.90;;;;;;5006515;28;20034;-66
2023/03/19 07:19:23;;;;;;;6.53;2.70;;;11.40;99.90;;;;;;4986517;28;20026;-66
2023/03/19 07:21:48;;;;;;;4.22;2.28;;;11.40;99.90;;;;;;5006504;28;20036;-66
2023/03/19 07:24:14;;;;;;;4.53;1.92;;;11.40;99.90;;;;;;5003652;28;20453;-66
2023/03/19 07:26:41;;;;;;;7.35;2.10;;;11.60;99.90;;;;;;4987492;28;20030;-66
2023/03/19 07:29:07;;;;;;;3.42;1.85;;;11.70;99.90;;;;;;4974694;28;20089;-66
2023/03/19 07:31:33;;;;;;;4.70;2.25;;;11.90;99.90;;;;;;4996491;28;20037;-67
2023/03/19 07:33:59;;;;;;;8.35;2.08;;;12.00;99.90;;;;;;5000214;28;20026;-66
2023/03/19 07:36:25;;;;;;;39.75;15.77;;;12.00;99.90;;;;;;4970050;28;20034;-66
2023/03/19 07:38:50;;;;;;;11.18;5.15;;;12.00;99.90;;;;;;5003613;28;20508;-66
2023/03/19 07:41:17;;;;;;;9.73;2.95;;;12.00;99.90;;;;;;5007161;28;20062;-69
2023/03/19 07:43:42;;;;;;;5.65;2.08;;;11.90;99.90;;;;;;4984591;28;20037;-66
2023/03/19 07:46:08;;;;;;;2.97;1.55;;;12.10;99.90;;;;;;5008024;28;20105;-66
2023/03/19 07:48:34;;;;;;;3.80;2.03;;;12.20;99.90;;;;;;4999933;28;20057;-64
2023/03/19 07:51:00;;;;;;;4.55;1.85;;;12.10;99.90;;;;;;4991455;28;20092;-65
2023/03/19 07:53:26;;;;;;;11.55;3.25;;;12.10;99.90;;;;;;4999970;28;20030;-66
2023/03/19 07:55:52;;;;;;;3.05;1.77;;;12.20;99.90;;;;;;5003837;28;20060;-66
2023/03/19 07:58:18;;;;;;;6.43;2.35;;;12.20;99.90;;;;;;4995646;28;20092;-66
2023/03/19 08:00:44;;;;;;;3.92;2.00;;;12.30;99.90;;;;;;5010704;28;20088;-66
2023/03/19 08:03:10;;;;;;;4.35;2.40;;;12.40;99.90;;;;;;4981591;28;20026;-66
2023/03/19 08:05:36;;;;;;;3.58;1.98;;;12.40;99.90;;;;;;5009272;28;20150;-66
2023/03/19 08:08:02;;;;;;;5.35;2.10;;;12.40;99.90;;;;;;5000254;28;20478;-66
2023/03/19 08:10:28;;;;;;;5.70;2.13;;;12.50;99.90;;;;;;4991225;28;20164;-65
2023/03/19 08:12:53;;;;;;;4.18;1.70;;;12.60;99.90;;;;;;4995631;28;20130;-67
2023/03/19 08:15:20;;;;;;;4.03;1.80;;;12.50;99.90;;;;;;5006944;28;20057;-66
2023/03/19 08:17:46;;;;;;;4.32;1.83;;;12.60;99.90;;;;;;4985202;28;20027;-66
2023/03/19 08:20:15;;;;;;;5.55;2.05;;;12.80;99.90;;;;;;5004750;28;20402;-66
2023/03/19 08:22:42;;;;;;;3.90;1.60;;;12.70;99.90;;;;;;5002953;28;20041;-65
2023/03/19 08:25:09;;;;;;;3.80;1.90;;;12.90;99.90;;;;;;4986257;28;20045;-65
2023/03/19 08:27:35;;;;;;;5.07;2.40;;;13.10;99.90;;;;;;4981680;28;20526;-68
2023/03/19 08:30:08;;;;;;;3.92;1.67;;;13.10;99.90;;;;;;4974848;28;20026;-66
2023/03/19 08:32:34;;;;;;;3.22;1.70;;;13.30;99.90;;;;;;4983559;28;20034;-66
2023/03/19 08:35:00;;;;;;;4.22;2.60;;;13.60;99.90;;;;;;4986724;28;20430;-66
2023/03/19 08:37:26;;;;;;;3.10;1.60;;;13.30;99.90;;;;;;4995990;28;20388;-66
2023/03/19 08:39:52;;;;;;;4.72;2.03;;;13.50;99.90;;;;;;5006860;28;20030;-66
2023/03/19 08:42:20;;;;;;;5.60;1.48;;;13.50;99.90;;;;;;4994582;28;20034;-66
2023/03/19 08:44:46;;;;;;;4.65;1.70;;;13.50;99.90;;;;;;4990656;28;20026;-67
2023/03/19 08:47:12;;;;;;;4.70;1.75;;;13.70;99.90;;;;;;4999406;28;20037;-67
2023/03/19 08:49:38;;;;;;;5.07;2.00;;;13.90;99.90;;;;;;5006945;28;20036;-66
2023/03/19 08:52:05;;;;;;;4.80;1.90;;;14.10;99.90;;;;;;4981590;28;20101;-67
2023/03/19 08:54:31;;;;;;;2.75;1.52;;;14.10;99.90;;;;;;4974094;28;20048;-66
2023/03/19 08:56:56;;;;;;;4.15;1.90;;;14.20;99.90;;;;;;4981594;28;20034;-66
2023/03/19 08:59:22;;;;;;;11.48;4.68;;;14.20;99.90;;;;;;5005732;28;20054;-66
2023/03/19 09:01:52;;;;;;;6.32;3.30;;;14.50;99.90;;;;;;4982569;28;20029;-67
2023/03/19 09:04:19;;;;;;;4.45;1.92;;;14.70;99.90;;;;;;5002040;23;20034;-70
2023/03/19 09:06:49;;;;;;;3.92;1.15;;;14.80;99.90;;;;;;4991212;28;20054;-70
2023/03/19 09:09:19;;;;;;;3.35;1.30;;;14.90;99.90;;;;;;4973995;28;20037;-70
2023/03/19 09:11:46;;;;;;;4.18;1.80;;;14.90;99.90;;;;;;4984341;28;20285;-71
2023/03/19 09:14:15;;;;;;;7.15;1.83;;;15.00;99.90;;;;;;4991792;28;20030;-69
2023/03/19 09:16:41;;;;;;;5.45;1.27;;;15.10;99.90;;;;;;4982862;28;20081;-74
2023/03/19 09:19:08;;;;;;;3.40;1.25;;;14.90;99.90;;;;;;4993150;28;20033;-72
2023/03/19 09:21:35;;;;;;;5.00;1.67;;;15.20;99.90;;;;;;4998472;28;20121;-73
2023/03/19 09:24:02;;;;;;;3.22;1.40;;;15.20;99.90;;;;;;5010498;28;20141;-73
2023/03/19 09:26:28;;;;;;;2.25;1.10;;;15.00;99.90;;;;;;4986080;28;20026;-73
2023/03/19 09:28:54;;;;;;;2.08;1.15;;;15.00;99.90;;;;;;4992047;28;20039;-71
2023/03/19 09:31:19;;;;;;;2.13;1.00;;;15.10;99.90;;;;;;4965166;28;20183;-71
2023/03/19 09:33:45;;;;;;;2.90;1.02;;;15.00;99.50;;;;;;5009503;28;20378;-72
2023/03/19 09:36:11;;;;;;;4.45;1.60;;;15.10;99.00;;;;;;5001322;28;20101;-72
2023/03/19 09:38:38;;;;;;;2.88;1.08;;;15.10;98.90;;;;;;4957319;28;20443;-73
2023/03/19 09:41:30;;;;;;;3.60;1.13;;;15.30;98.80;;;;;;4984572;28;20547;-73
2023/03/19 09:44:00;;;;;;;1.65;0.95;;;15.40;98.50;;;;;;4975659;28;20061;-72
2023/03/19 09:46:37;;;;;;;2.10;0.93;;;15.30;97.40;;;;;;4997068;28;20517;-73
2023/03/19 09:49:31;;;;;;;3.70;1.17;;;15.30;97.90;;;;;;4992957;28;20046;-73
2023/03/19 09:52:13;;;;;;;3.60;1.15;;;15.50;98.20;;;;;;4991951;28;20415;-73
2023/03/19 09:54:47;;;;;;;1.65;0.77;;;15.70;97.80;;;;;;4993478;28;20027;-73
2023/03/19 09:57:14;;;;;;;3.42;1.30;;;15.80;97.90;;;;;;4986538;28;20042;-73
2023/03/19 09:59:40;;;;;;;1.98;0.80;;;16.10;97.60;;;;;;4961329;28;20029;-73
2023/03/19 10:02:21;;;;;;;3.42;1.35;;;16.10;96.90;;;;;;5005880;28;20556;-72
2023/03/19 10:05:14;;;;;;;2.25;0.88;;;16.20;97.40;;;;;;5010503;28;20478;-73
2023/03/19 10:08:13;;;;;;;2.38;1.10;;;16.40;97.10;;;;;;5002199;28;20774;-71
2023/03/19 10:11:19;;;;;;;1.75;0.80;;;16.50;96.60;;;;;;4985869;28;20444;-71
2023/03/19 10:13:56;;;;;;;2.10;0.98;;;16.80;96.70;;;;;;5012668;28;20385;-71
2023/03/19 10:16:26;;;;;;;2.58;1.60;;;16.90;96.90;;;;;;5002933;28;20042;-73
2023/03/19 10:18:59;;;;;;;4.47;1.10;;;16.60;96.10;;;;;;4957469;28;20248;-73
2023/03/19 10:21:39;;;;;;;2.00;0.77;;;16.80;96.20;;;;;;4982137;28;20042;-72
2023/03/19 10:24:20;;;;;;;1.90;1.13;;;17.10;95.80;;;;;;4996127;28;20087;-72
2023/03/19 10:26:47;;;;;;;3.75;1.20;;;17.10;95.00;;;;;;4989223;28;20478;-73
2023/03/19 10:29:21;;;;;;;3.47;1.42;;;17.10;95.70;;;;;;4975823;28;20759;-73
2023/03/19 10:32:37;;;;;;;2.97;1.35;;;16.90;95.00;;;;;;4987220;28;20770;-69
2023/03/19 10:35:23;;;;;;;3.65;0.75;;;16.80;95.30;;;;;;4958373;28;20041;-72
2023/03/19 10:37:49;;;;;;;3.10;0.98;;;16.90;95.30;;;;;;4970938;28;20058;-71
2023/03/19 10:40:47;;;;;;;3.50;1.08;;;17.00;95.10;;;;;;4979260;28;20026;-72
2023/03/19 10:43:22;;;;;;;1.10;0.60;;;17.10;94.50;;;;;;4944702;28;20042;-72
2023/03/19 10:45:48;;;;;;;5.00;1.98;;;17.20;94.10;;;;;;4987135;28;20126;-71
2023/03/19 10:48:18;;;;;;;1.98;0.90;;;17.50;93.80;;;;;;5009232;28;20501;-74
2023/03/19 10:50:53;;;;;;;2.33;0.88;;;17.70;93.30;;;;;;4984495;28;20035;-72
2023/03/19 10:53:30;;;;;;;1.15;0.77;;;17.70;92.70;;;;;;4986246;28;20030;-71
2023/03/19 10:56:21;;;;;;;2.13;1.00;;;17.50;93.70;;;;;;4976220;28;20026;-71
2023/03/19 10:59:06;;;;;;;1.70;0.98;;;17.90;93.60;;;;;;4988585;28;20113;-72
2023/03/19 11:01:40;;;;;;;1.40;0.93;;;17.70;93.10;;;;;;5004044;28;20393;-74
2023/03/19 11:04:20;;;;;;;3.90;0.95;;;17.70;92.50;;;;;;5001455;28;20022;-73
2023/03/19 11:06:52;;;;;;;2.37;1.17;;;17.90;92.30;;;;;;4970218;28;20049;-74
2023/03/19 11:09:36;;;;;;;3.45;0.90;;;17.80;92.90;;;;;;5003180;28;20037;-72
2023/03/19 11:12:07;;;;;;;4.05;0.95;;;17.90;93.30;;;;;;4999439;28;20034;-73
2023/03/19 11:14:39;;;;;;;10.32;1.40;;;17.50;92.10;;;;;;4988153;28;20026;-74
2023/03/19 11:17:20;;;;;;;2.05;1.05;;;17.10;92.60;;;;;;4989031;28;20048;-73
2023/03/19 11:19:56;;;;;;;7.55;2.53;;;17.20;92.50;;;;;;5000377;28;20030;-73
2023/03/19 11:22:35;;;;;;;3.90;1.13;;;17.10;92.40;;;;;;4991208;28;20401;-74
2023/03/19 11:25:17;;;;;;;2.28;0.88;;;17.50;92.80;;;;;;5001623;28;20045;-73
2023/03/19 11:27:44;;;;;;;5.80;1.00;;;17.20;93.00;;;;;;5011529;28;20065;-73
2023/03/19 11:30:43;;;;;;;2.45;1.23;;;17.20;92.80;;;;;;4978698;28;20026;-73
2023/03/19 11:33:37;;;;;;;2.42;1.00;;;17.00;92.40;;;;;;4958568;28;20038;-73
2023/03/19 11:36:17;;;;;;;2.70;0.75;;;16.70;93.40;;;;;;4995311;28;20030;-73
2023/03/19 11:39:14;;;;;;;1.77;0.80;;;16.70;93.40;;;;;;4972834;28;20039;-74
2023/03/19 11:42:16;;;;;;;1.33;0.93;;;16.80;93.10;;;;;;4987734;28;20038;-73
2023/03/19 11:45:32;;;;;;;4.10;1.10;;;16.80;93.30;;;;;;4987262;28;20057;-74
2023/03/19 11:49:01;;;;;;;2.28;0.90;;;16.70;93.70;;;;;;4973734;28;20093;-74
2023/03/19 11:51:40;;;;;;;2.10;1.15;;;16.60;94.40;;;;;;4912788;29;20067;-73
2023/03/19 11:54:56;;;;;;;1.95;1.10;;;16.60;94.30;;;;;;4980797;28;20092;-74
2023/03/19 11:57:47;;;;;;;2.13;1.20;;;16.50;94.90;;;;;;5007599;28;20042;-74
2023/03/19 12:00:30;;;;;;;3.15;0.93;;;16.60;94.10;;;;;;4996042;28;20085;-74
2023/03/19 12:03:29;;;;;;;2.55;1.20;;;16.60;94.10;;;;;;4972911;28;20043;-74
2023/03/19 12:05:59;;;;;;;2.72;1.08;;;16.70;94.00;;;;;;4992855;28;20073;-74
2023/03/19 12:08:46;;;;;;;2.90;1.47;;;16.50;93.70;;;;;;4971093;28;20037;-74
2023/03/19 12:11:24;;;;;;;1.35;0.68;;;16.60;94.20;;;;;;5003456;28;20068;-74
2023/03/19 12:14:34;;;;;;;1.25;0.47;;;16.70;94.50;;;;;;4987981;28;20018;-72
2023/03/19 12:17:42;;;;;;;2.90;1.10;;;16.60;94.40;;;;;;4996007;28;20038;-72
2023/03/19 12:20:31;;;;;;;1.67;0.82;;;16.60;95.80;;;;;;4973756;28;20038;-71
2023/03/19 12:23:15;;;;;;;1.65;1.05;;;16.50;95.60;;;;;;4975387;28;20417;-71
2023/03/19 12:25:59;;;;;;;4.00;0.70;;;16.50;96.20;;;;;;4990550;28;20482;-71
2023/03/19 12:28:52;;;;;;;1.92;0.82;;;16.60;96.20;;;;;;5003002;28;20037;-72
2023/03/19 12:31:40;;;;;;;2.92;0.70;;;16.80;96.80;;;;;;4991893;28;20034;-72
2023/03/19 12:34:16;;;;;;;2.88;1.10;;;16.70;95.20;;;;;;4982046;28;20026;-71
2023/03/19 12:37:12;;;;;;;2.38;0.90;;;16.60;95.30;;;;;;4987092;28;20037;-72
2023/03/19 12:40:06;;;;;;;1.73;0.77;;;16.90;96.20;;;;;;4992570;28;20038;-72
2023/03/19 12:42:38;;;;;;;6.05;1.23;;;16.80;94.40;;;;;;4983208;28;20052;-70
2023/03/19 12:45:41;;;;;;;2.67;0.70;;;16.90;94.70;;;;;;4991786;28;20396;-71
2023/03/19 12:48:24;;;;;;;3.80;1.10;;;17.00;94.10;;;;;;4993590;28;20066;-68
2023/03/19 12:50:55;;;;;;;4.13;1.40;;;16.70;94.90;;;;;;4976749;28;20029;-73
2023/03/19 12:53:49;;;;;;;2.92;1.13;;;16.60;94.90;;;;;;5002297;28;20413;-72
2023/03/19 12:56:58;;;;;;;1.95;0.90;;;16.50;95.10;;;;;;4986276;28;20073;-71
2023/03/19 13:00:08;;;;;;;3.50;1.17;;;16.40;95.40;;;;;;4930580;29;20031;-73
2023/03/19 13:02:52;;;;;;;3.45;1.02;;;16.30;95.10;;;;;;4899946;29;20614;-73
2023/03/19 13:05:31;;;;;;;1.98;0.85;;;16.30;95.30;;;;;;4931026;29;20427;-72